sensor_id;sensor_type;location;lat;lon;timestamp;P1;durP1;ratioP1;P2;durP2;ratioP2
39554;SDS011;25231;48.746;9.234;2023-03-25T00:00:59;3.60;;;3.43;;
39554;SDS011;25231;48.746;9.234;2023-03-25T00:03:26;4.10;;;3.80;;
39554;SDS011;25231;48.746;9.234;2023-03-25T00:05:54;6.30;;;5.40;;
39554;SDS011;25231;48.746;9.234;2023-03-25T00:08:21;3.37;;;3.10;;
39554;SDS011;25231;48.746;9.234;2023-03-25T00:10:55;3.00;;;2.80;;
39554;SDS011;25231;48.746;9.234;2023-03-25T00:13:22;6.10;;;5.57;;
39554;SDS011;25231;48.746;9.234;2023-03-25T00:15:48;4.90;;;4.60;;
39554;SDS011;25231;48.746;9.234;2023-03-25T00:18:14;3.87;;;3.50;;
39554;SDS011;25231;48.746;9.234;2023-03-25T00:20:42;3.37;;;3.07;;
39554;SDS011;25231;48.746;9.234;2023-03-25T00:23:10;3.23;;;3.03;;
39554;SDS011;25231;48.746;9.234;2023-03-25T00:25:37;3.10;;;2.70;;
39554;SDS011;25231;48.746;9.234;2023-03-25T00:28:02;3.37;;;3.17;;
39554;SDS011;25231;48.746;9.234;2023-03-25T00:30:27;2.90;;;2.80;;
39554;SDS011;25231;48.746;9.234;2023-03-25T00:32:53;3.20;;;2.80;;
39554;SDS011;25231;48.746;9.234;2023-03-25T00:35:18;3.30;;;3.07;;
39554;SDS011;25231;48.746;9.234;2023-03-25T00:37:45;2.93;;;2.73;;
39554;SDS011;25231;48.746;9.234;2023-03-25T00:40:12;3.33;;;2.80;;
39554;SDS011;25231;48.746;9.234;2023-03-25T00:42:37;3.37;;;3.13;;
39554;SDS011;25231;48.746;9.234;2023-03-25T00:45:08;3.93;;;3.73;;
39554;SDS011;25231;48.746;9.234;2023-03-25T00:47:37;3.57;;;3.27;;
39554;SDS011;25231;48.746;9.234;2023-03-25T00:50:02;3.13;;;2.77;;
39554;SDS011;25231;48.746;9.234;2023-03-25T00:52:30;3.27;;;2.90;;
39554;SDS011;25231;48.746;9.234;2023-03-25T00:54:55;3.20;;;3.10;;
39554;SDS011;25231;48.746;9.234;2023-03-25T00:57:20;3.33;;;3.03;;
39554;SDS011;25231;48.746;9.234;2023-03-25T00:59:46;3.23;;;3.07;;
39554;SDS011;25231;48.746;9.234;2023-03-25T01:02:11;3.20;;;2.90;;
39554;SDS011;25231;48.746;9.234;2023-03-25T01:04:37;2.70;;;2.50;;
39554;SDS011;25231;48.746;9.234;2023-03-25T01:07:03;4.10;;;3.00;;
39554;SDS011;25231;48.746;9.234;2023-03-25T01:09:29;3.10;;;2.83;;
39554;SDS011;25231;48.746;9.234;2023-03-25T01:11:55;4.30;;;3.07;;
39554;SDS011;25231;48.746;9.234;2023-03-25T01:14:20;3.00;;;2.83;;
39554;SDS011;25231;48.746;9.234;2023-03-25T01:16:48;3.50;;;3.27;;
39554;SDS011;25231;48.746;9.234;2023-03-25T01:19:14;4.10;;;3.70;;
39554;SDS011;25231;48.746;9.234;2023-03-25T01:21:39;3.60;;;3.30;;
39554;SDS011;25231;48.746;9.234;2023-03-25T01:24:06;4.67;;;3.37;;
39554;SDS011;25231;48.746;9.234;2023-03-25T01:26:32;5.27;;;3.37;;
39554;SDS011;25231;48.746;9.234;2023-03-25T01:28:58;3.50;;;3.20;;
39554;SDS011;25231;48.746;9.234;2023-03-25T01:31:24;4.00;;;3.50;;
39554;SDS011;25231;48.746;9.234;2023-03-25T01:33:54;3.50;;;3.20;;
39554;SDS011;25231;48.746;9.234;2023-03-25T01:36:20;3.00;;;2.90;;
39554;SDS011;25231;48.746;9.234;2023-03-25T01:38:48;7.30;;;3.27;;
39554;SDS011;25231;48.746;9.234;2023-03-25T01:41:14;3.63;;;3.10;;
39554;SDS011;25231;48.746;9.234;2023-03-25T01:43:40;4.10;;;3.47;;
39554;SDS011;25231;48.746;9.234;2023-03-25T01:46:08;3.80;;;3.10;;
39554;SDS011;25231;48.746;9.234;2023-03-25T01:48:38;4.87;;;3.30;;
39554;SDS011;25231;48.746;9.234;2023-03-25T01:51:11;4.17;;;3.43;;
39554;SDS011;25231;48.746;9.234;2023-03-25T01:53:41;4.23;;;3.17;;
39554;SDS011;25231;48.746;9.234;2023-03-25T01:56:07;5.23;;;3.30;;
39554;SDS011;25231;48.746;9.234;2023-03-25T01:58:37;3.40;;;3.10;;
39554;SDS011;25231;48.746;9.234;2023-03-25T02:01:03;4.17;;;3.90;;
39554;SDS011;25231;48.746;9.234;2023-03-25T02:03:30;3.33;;;3.17;;
39554;SDS011;25231;48.746;9.234;2023-03-25T02:06:02;4.40;;;4.10;;
39554;SDS011;25231;48.746;9.234;2023-03-25T02:08:31;4.37;;;3.90;;
39554;SDS011;25231;48.746;9.234;2023-03-25T02:11:01;4.70;;;4.40;;
39554;SDS011;25231;48.746;9.234;2023-03-25T02:13:27;4.73;;;4.43;;
39554;SDS011;25231;48.746;9.234;2023-03-25T02:35:28;4.20;;;3.40;;
39554;SDS011;25231;48.746;9.234;2023-03-25T02:38:18;3.70;;;3.40;;
39554;SDS011;25231;48.746;9.234;2023-03-25T02:41:13;3.73;;;3.27;;
39554;SDS011;25231;48.746;9.234;2023-03-25T02:43:52;4.00;;;3.80;;
39554;SDS011;25231;48.746;9.234;2023-03-25T02:46:22;3.80;;;3.50;;
39554;SDS011;25231;48.746;9.234;2023-03-25T02:49:07;3.90;;;3.40;;
39554;SDS011;25231;48.746;9.234;2023-03-25T02:51:39;3.63;;;3.43;;
39554;SDS011;25231;48.746;9.234;2023-03-25T02:54:11;4.20;;;3.97;;
39554;SDS011;25231;48.746;9.234;2023-03-25T02:56:40;3.90;;;3.63;;
39554;SDS011;25231;48.746;9.234;2023-03-25T02:59:08;5.03;;;4.63;;
39554;SDS011;25231;48.746;9.234;2023-03-25T03:01:38;3.50;;;3.40;;
39554;SDS011;25231;48.746;9.234;2023-03-25T03:04:05;3.83;;;3.27;;
39554;SDS011;25231;48.746;9.234;2023-03-25T03:06:30;4.23;;;3.13;;
39554;SDS011;25231;48.746;9.234;2023-03-25T03:09:06;3.50;;;3.27;;
39554;SDS011;25231;48.746;9.234;2023-03-25T03:14:56;3.47;;;3.20;;
39554;SDS011;25231;48.746;9.234;2023-03-25T03:23:28;3.70;;;3.47;;
39554;SDS011;25231;48.746;9.234;2023-03-25T03:33:38;5.67;;;3.53;;
39554;SDS011;25231;48.746;9.234;2023-03-25T03:36:10;2.90;;;2.80;;
39554;SDS011;25231;48.746;9.234;2023-03-25T03:38:40;3.43;;;3.17;;
39554;SDS011;25231;48.746;9.234;2023-03-25T03:41:11;3.53;;;3.33;;
39554;SDS011;25231;48.746;9.234;2023-03-25T03:43:45;2.93;;;2.83;;
39554;SDS011;25231;48.746;9.234;2023-03-25T03:49:14;3.40;;;3.20;;
39554;SDS011;25231;48.746;9.234;2023-03-25T03:51:48;2.90;;;2.80;;
39554;SDS011;25231;48.746;9.234;2023-03-25T03:54:24;3.47;;;3.27;;
39554;SDS011;25231;48.746;9.234;2023-03-25T03:56:55;3.40;;;3.30;;
39554;SDS011;25231;48.746;9.234;2023-03-25T04:02:01;4.50;;;4.30;;
39554;SDS011;25231;48.746;9.234;2023-03-25T04:04:32;4.77;;;4.37;;
39554;SDS011;25231;48.746;9.234;2023-03-25T04:07:07;4.03;;;3.83;;
39554;SDS011;25231;48.746;9.234;2023-03-25T04:09:41;3.40;;;3.30;;
39554;SDS011;25231;48.746;9.234;2023-03-25T04:12:27;2.90;;;2.80;;
39554;SDS011;25231;48.746;9.234;2023-03-25T04:14:55;3.63;;;3.40;;
39554;SDS011;25231;48.746;9.234;2023-03-25T04:17:21;3.73;;;3.63;;
39554;SDS011;25231;48.746;9.234;2023-03-25T04:19:48;6.00;;;3.10;;
39554;SDS011;25231;48.746;9.234;2023-03-25T04:22:17;2.90;;;2.80;;
39554;SDS011;25231;48.746;9.234;2023-03-25T04:24:44;2.80;;;2.70;;
39554;SDS011;25231;48.746;9.234;2023-03-25T04:27:13;3.20;;;3.10;;
39554;SDS011;25231;48.746;9.234;2023-03-25T04:29:43;2.90;;;2.70;;
39554;SDS011;25231;48.746;9.234;2023-03-25T04:32:10;2.77;;;2.67;;
39554;SDS011;25231;48.746;9.234;2023-03-25T04:34:36;3.20;;;3.10;;
39554;SDS011;25231;48.746;9.234;2023-03-25T04:37:02;3.20;;;3.10;;
39554;SDS011;25231;48.746;9.234;2023-03-25T04:39:28;3.37;;;3.17;;
39554;SDS011;25231;48.746;9.234;2023-03-25T04:41:56;3.70;;;3.50;;
39554;SDS011;25231;48.746;9.234;2023-03-25T04:44:26;4.03;;;3.80;;
39554;SDS011;25231;48.746;9.234;2023-03-25T04:46:52;3.83;;;3.73;;
39554;SDS011;25231;48.746;9.234;2023-03-25T04:49:20;3.17;;;3.07;;
39554;SDS011;25231;48.746;9.234;2023-03-25T04:51:47;3.93;;;3.63;;
39554;SDS011;25231;48.746;9.234;2023-03-25T04:54:16;3.37;;;3.27;;
39554;SDS011;25231;48.746;9.234;2023-03-25T04:56:42;3.73;;;3.43;;
39554;SDS011;25231;48.746;9.234;2023-03-25T04:59:07;3.53;;;3.23;;
39554;SDS011;25231;48.746;9.234;2023-03-25T05:01:34;3.70;;;3.50;;
39554;SDS011;25231;48.746;9.234;2023-03-25T05:04:06;3.77;;;3.57;;
39554;SDS011;25231;48.746;9.234;2023-03-25T05:06:36;3.83;;;3.63;;
39554;SDS011;25231;48.746;9.234;2023-03-25T05:09:03;6.17;;;4.20;;
39554;SDS011;25231;48.746;9.234;2023-03-25T05:11:30;5.00;;;4.67;;
39554;SDS011;25231;48.746;9.234;2023-03-25T05:13:57;4.17;;;3.97;;
39554;SDS011;25231;48.746;9.234;2023-03-25T05:16:23;4.63;;;4.23;;
39554;SDS011;25231;48.746;9.234;2023-03-25T05:18:48;4.30;;;4.03;;
39554;SDS011;25231;48.746;9.234;2023-03-25T05:21:14;3.60;;;3.43;;
39554;SDS011;25231;48.746;9.234;2023-03-25T05:23:40;4.13;;;3.57;;
39554;SDS011;25231;48.746;9.234;2023-03-25T05:26:06;3.37;;;3.17;;
39554;SDS011;25231;48.746;9.234;2023-03-25T05:28:32;6.53;;;3.60;;
39554;SDS011;25231;48.746;9.234;2023-03-25T05:30:58;5.33;;;4.23;;
39554;SDS011;25231;48.746;9.234;2023-03-25T05:33:23;5.53;;;3.10;;
39554;SDS011;25231;48.746;9.234;2023-03-25T05:35:49;3.27;;;3.00;;
39554;SDS011;25231;48.746;9.234;2023-03-25T05:38:15;3.33;;;3.13;;
39554;SDS011;25231;48.746;9.234;2023-03-25T05:40:43;3.50;;;3.30;;
39554;SDS011;25231;48.746;9.234;2023-03-25T05:43:10;3.70;;;3.40;;
39554;SDS011;25231;48.746;9.234;2023-03-25T05:45:36;4.17;;;3.60;;
39554;SDS011;25231;48.746;9.234;2023-03-25T05:48:01;5.33;;;3.67;;
39554;SDS011;25231;48.746;9.234;2023-03-25T05:50:27;4.07;;;3.50;;
39554;SDS011;25231;48.746;9.234;2023-03-25T05:52:53;3.53;;;3.30;;
39554;SDS011;25231;48.746;9.234;2023-03-25T05:55:19;4.10;;;3.70;;
39554;SDS011;25231;48.746;9.234;2023-03-25T05:57:46;3.50;;;3.10;;
39554;SDS011;25231;48.746;9.234;2023-03-25T06:00:14;4.50;;;3.37;;
39554;SDS011;25231;48.746;9.234;2023-03-25T06:02:41;2.80;;;2.70;;
39554;SDS011;25231;48.746;9.234;2023-03-25T06:05:09;3.80;;;3.50;;
39554;SDS011;25231;48.746;9.234;2023-03-25T06:07:38;5.33;;;3.70;;
39554;SDS011;25231;48.746;9.234;2023-03-25T06:10:07;4.17;;;3.97;;
39554;SDS011;25231;48.746;9.234;2023-03-25T06:12:36;4.83;;;3.97;;
39554;SDS011;25231;48.746;9.234;2023-03-25T06:15:06;4.57;;;4.23;;
39554;SDS011;25231;48.746;9.234;2023-03-25T06:17:33;4.37;;;4.07;;
39554;SDS011;25231;48.746;9.234;2023-03-25T06:20:02;3.50;;;3.40;;
39554;SDS011;25231;48.746;9.234;2023-03-25T06:22:39;3.27;;;3.00;;
39554;SDS011;25231;48.746;9.234;2023-03-25T06:25:09;2.80;;;2.60;;
39554;SDS011;25231;48.746;9.234;2023-03-25T06:27:36;4.73;;;4.23;;
39554;SDS011;25231;48.746;9.234;2023-03-25T06:30:05;6.30;;;3.77;;
39554;SDS011;25231;48.746;9.234;2023-03-25T06:32:36;4.73;;;4.23;;
39554;SDS011;25231;48.746;9.234;2023-03-25T06:35:02;3.90;;;2.93;;
39554;SDS011;25231;48.746;9.234;2023-03-25T06:37:29;5.00;;;3.20;;
39554;SDS011;25231;48.746;9.234;2023-03-25T06:39:54;4.60;;;3.73;;
39554;SDS011;25231;48.746;9.234;2023-03-25T06:42:21;3.83;;;3.63;;
39554;SDS011;25231;48.746;9.234;2023-03-25T06:44:48;4.13;;;3.77;;
39554;SDS011;25231;48.746;9.234;2023-03-25T06:47:13;3.80;;;3.50;;
39554;SDS011;25231;48.746;9.234;2023-03-25T06:49:39;4.10;;;3.80;;
39554;SDS011;25231;48.746;9.234;2023-03-25T06:52:04;3.97;;;3.50;;
39554;SDS011;25231;48.746;9.234;2023-03-25T06:54:30;3.50;;;3.20;;
39554;SDS011;25231;48.746;9.234;2023-03-25T06:56:55;3.80;;;3.43;;
39554;SDS011;25231;48.746;9.234;2023-03-25T06:59:20;3.93;;;3.63;;
39554;SDS011;25231;48.746;9.234;2023-03-25T07:01:45;4.10;;;3.80;;
39554;SDS011;25231;48.746;9.234;2023-03-25T07:04:11;4.00;;;3.60;;
39554;SDS011;25231;48.746;9.234;2023-03-25T07:06:36;3.77;;;3.47;;
39554;SDS011;25231;48.746;9.234;2023-03-25T07:09:02;5.90;;;4.20;;
39554;SDS011;25231;48.746;9.234;2023-03-25T07:11:28;4.40;;;4.00;;
39554;SDS011;25231;48.746;9.234;2023-03-25T07:13:54;4.83;;;3.90;;
39554;SDS011;25231;48.746;9.234;2023-03-25T07:16:20;4.70;;;4.33;;
39554;SDS011;25231;48.746;9.234;2023-03-25T07:18:46;3.80;;;3.50;;
39554;SDS011;25231;48.746;9.234;2023-03-25T07:21:12;4.63;;;4.10;;
39554;SDS011;25231;48.746;9.234;2023-03-25T07:23:38;4.00;;;3.70;;
39554;SDS011;25231;48.746;9.234;2023-03-25T07:26:03;3.63;;;3.33;;
39554;SDS011;25231;48.746;9.234;2023-03-25T07:28:29;4.07;;;3.67;;
39554;SDS011;25231;48.746;9.234;2023-03-25T07:30:54;3.40;;;3.07;;
39554;SDS011;25231;48.746;9.234;2023-03-25T07:33:20;3.97;;;3.70;;
39554;SDS011;25231;48.746;9.234;2023-03-25T07:35:45;4.60;;;3.50;;
39554;SDS011;25231;48.746;9.234;2023-03-25T07:38:10;5.57;;;5.27;;
39554;SDS011;25231;48.746;9.234;2023-03-25T07:40:36;5.23;;;4.83;;
39554;SDS011;25231;48.746;9.234;2023-03-25T07:43:01;5.90;;;4.73;;
39554;SDS011;25231;48.746;9.234;2023-03-25T07:45:27;4.57;;;4.33;;
39554;SDS011;25231;48.746;9.234;2023-03-25T07:47:53;3.80;;;3.60;;
39554;SDS011;25231;48.746;9.234;2023-03-25T07:50:20;4.07;;;3.70;;
39554;SDS011;25231;48.746;9.234;2023-03-25T07:52:46;3.77;;;3.57;;
39554;SDS011;25231;48.746;9.234;2023-03-25T07:55:12;2.93;;;2.73;;
39554;SDS011;25231;48.746;9.234;2023-03-25T07:57:38;3.50;;;3.30;;
39554;SDS011;25231;48.746;9.234;2023-03-25T08:00:05;2.40;;;2.30;;
39554;SDS011;25231;48.746;9.234;2023-03-25T08:02:31;2.50;;;2.40;;
39554;SDS011;25231;48.746;9.234;2023-03-25T08:04:57;3.07;;;2.87;;
39554;SDS011;25231;48.746;9.234;2023-03-25T08:07:22;3.57;;;3.37;;
39554;SDS011;25231;48.746;9.234;2023-03-25T08:09:47;3.40;;;3.17;;
39554;SDS011;25231;48.746;9.234;2023-03-25T08:12:13;4.03;;;3.70;;
39554;SDS011;25231;48.746;9.234;2023-03-25T08:14:38;5.00;;;4.70;;
39554;SDS011;25231;48.746;9.234;2023-03-25T08:17:04;6.37;;;6.07;;
39554;SDS011;25231;48.746;9.234;2023-03-25T08:19:30;6.40;;;6.10;;
39554;SDS011;25231;48.746;9.234;2023-03-25T08:21:56;7.63;;;7.13;;
39554;SDS011;25231;48.746;9.234;2023-03-25T08:24:21;8.63;;;8.00;;
39554;SDS011;25231;48.746;9.234;2023-03-25T08:26:48;4.60;;;3.97;;
39554;SDS011;25231;48.746;9.234;2023-03-25T08:29:13;3.70;;;3.50;;
39554;SDS011;25231;48.746;9.234;2023-03-25T08:31:41;3.27;;;3.17;;
39554;SDS011;25231;48.746;9.234;2023-03-25T08:34:06;3.10;;;3.00;;
39554;SDS011;25231;48.746;9.234;2023-03-25T08:36:32;3.80;;;3.50;;
39554;SDS011;25231;48.746;9.234;2023-03-25T08:38:57;3.57;;;3.27;;
39554;SDS011;25231;48.746;9.234;2023-03-25T08:41:23;2.87;;;2.77;;
39554;SDS011;25231;48.746;9.234;2023-03-25T08:43:48;3.03;;;2.83;;
39554;SDS011;25231;48.746;9.234;2023-03-25T08:46:14;4.00;;;3.80;;
39554;SDS011;25231;48.746;9.234;2023-03-25T08:48:40;10.57;;;9.97;;
39554;SDS011;25231;48.746;9.234;2023-03-25T08:51:05;4.87;;;4.53;;
39554;SDS011;25231;48.746;9.234;2023-03-25T08:53:31;4.60;;;4.30;;
39554;SDS011;25231;48.746;9.234;2023-03-25T08:55:58;2.83;;;2.73;;
39554;SDS011;25231;48.746;9.234;2023-03-25T08:58:24;3.20;;;3.00;;
39554;SDS011;25231;48.746;9.234;2023-03-25T09:00:53;2.73;;;2.53;;
39554;SDS011;25231;48.746;9.234;2023-03-25T09:03:20;2.80;;;2.60;;
39554;SDS011;25231;48.746;9.234;2023-03-25T09:05:47;3.93;;;3.73;;
39554;SDS011;25231;48.746;9.234;2023-03-25T09:08:12;3.43;;;3.33;;
39554;SDS011;25231;48.746;9.234;2023-03-25T09:10:38;4.33;;;4.13;;
39554;SDS011;25231;48.746;9.234;2023-03-25T09:13:04;3.47;;;3.27;;
39554;SDS011;25231;48.746;9.234;2023-03-25T09:15:29;2.97;;;2.80;;
39554;SDS011;25231;48.746;9.234;2023-03-25T09:17:55;4.80;;;4.60;;
39554;SDS011;25231;48.746;9.234;2023-03-25T09:20:20;4.93;;;4.40;;
39554;SDS011;25231;48.746;9.234;2023-03-25T09:22:46;5.77;;;5.37;;
39554;SDS011;25231;48.746;9.234;2023-03-25T09:25:11;5.20;;;4.90;;
39554;SDS011;25231;48.746;9.234;2023-03-25T09:27:37;5.83;;;5.47;;
39554;SDS011;25231;48.746;9.234;2023-03-25T09:30:04;5.53;;;5.13;;
39554;SDS011;25231;48.746;9.234;2023-03-25T09:32:30;4.73;;;4.53;;
39554;SDS011;25231;48.746;9.234;2023-03-25T09:34:55;4.87;;;4.67;;
39554;SDS011;25231;48.746;9.234;2023-03-25T09:37:21;4.40;;;4.10;;
39554;SDS011;25231;48.746;9.234;2023-03-25T09:39:47;4.30;;;3.97;;
39554;SDS011;25231;48.746;9.234;2023-03-25T09:50:34;3.37;;;3.07;;
39554;SDS011;25231;48.746;9.234;2023-03-25T09:55:40;3.37;;;3.10;;
39554;SDS011;25231;48.746;9.234;2023-03-25T10:06:49;4.03;;;3.73;;
39554;SDS011;25231;48.746;9.234;2023-03-25T10:09:28;6.00;;;5.60;;
39554;SDS011;25231;48.746;9.234;2023-03-25T10:17:19;3.57;;;3.37;;
39554;SDS011;25231;48.746;9.234;2023-03-25T10:20:04;4.20;;;3.90;;
39554;SDS011;25231;48.746;9.234;2023-03-25T10:25:35;2.87;;;2.67;;
39554;SDS011;25231;48.746;9.234;2023-03-25T10:28:05;3.53;;;2.93;;
39554;SDS011;25231;48.746;9.234;2023-03-25T10:30:38;3.17;;;2.97;;
39554;SDS011;25231;48.746;9.234;2023-03-25T10:33:32;3.93;;;3.63;;
39554;SDS011;25231;48.746;9.234;2023-03-25T10:36:00;7.80;;;7.37;;
39554;SDS011;25231;48.746;9.234;2023-03-25T10:38:27;6.93;;;6.63;;
39554;SDS011;25231;48.746;9.234;2023-03-25T10:43:37;59.67;;;56.67;;
39554;SDS011;25231;48.746;9.234;2023-03-25T10:48:33;3.13;;;3.00;;
39554;SDS011;25231;48.746;9.234;2023-03-25T10:51:03;4.17;;;4.07;;
39554;SDS011;25231;48.746;9.234;2023-03-25T10:53:34;3.37;;;3.17;;
39554;SDS011;25231;48.746;9.234;2023-03-25T10:58:28;14.67;;;13.87;;
39554;SDS011;25231;48.746;9.234;2023-03-25T11:00:54;20.07;;;19.00;;
39554;SDS011;25231;48.746;9.234;2023-03-25T11:03:25;13.60;;;12.97;;
39554;SDS011;25231;48.746;9.234;2023-03-25T11:05:57;4.93;;;4.63;;
39554;SDS011;25231;48.746;9.234;2023-03-25T11:08:23;3.70;;;3.50;;
39554;SDS011;25231;48.746;9.234;2023-03-25T11:10:50;9.87;;;9.30;;
39554;SDS011;25231;48.746;9.234;2023-03-25T11:13:27;14.60;;;13.87;;
39554;SDS011;25231;48.746;9.234;2023-03-25T11:15:55;19.47;;;18.47;;
39554;SDS011;25231;48.746;9.234;2023-03-25T11:21:00;13.63;;;12.53;;
39554;SDS011;25231;48.746;9.234;2023-03-25T11:23:33;12.33;;;11.57;;
39554;SDS011;25231;48.746;9.234;2023-03-25T11:29:00;10.83;;;10.13;;
39554;SDS011;25231;48.746;9.234;2023-03-25T11:31:34;7.23;;;6.80;;
39554;SDS011;25231;48.746;9.234;2023-03-25T11:36:41;7.63;;;7.23;;
39554;SDS011;25231;48.746;9.234;2023-03-25T11:39:37;5.20;;;4.83;;
39554;SDS011;25231;48.746;9.234;2023-03-25T11:42:27;4.80;;;4.60;;
39554;SDS011;25231;48.746;9.234;2023-03-25T11:44:56;7.03;;;6.73;;
39554;SDS011;25231;48.746;9.234;2023-03-25T11:47:24;13.17;;;12.43;;
39554;SDS011;25231;48.746;9.234;2023-03-25T11:49:53;25.53;;;24.23;;
39554;SDS011;25231;48.746;9.234;2023-03-25T11:52:20;19.40;;;18.20;;
39554;SDS011;25231;48.746;9.234;2023-03-25T11:54:48;37.17;;;35.17;;
39554;SDS011;25231;48.746;9.234;2023-03-25T11:57:19;6.30;;;6.00;;
39554;SDS011;25231;48.746;9.234;2023-03-25T11:59:48;7.23;;;6.73;;
39554;SDS011;25231;48.746;9.234;2023-03-25T12:02:23;8.43;;;7.93;;
39554;SDS011;25231;48.746;9.234;2023-03-25T12:05:10;12.37;;;11.77;;
39554;SDS011;25231;48.746;9.234;2023-03-25T12:07:47;7.13;;;6.73;;
39554;SDS011;25231;48.746;9.234;2023-03-25T12:10:18;11.60;;;10.90;;
39554;SDS011;25231;48.746;9.234;2023-03-25T12:15:21;20.77;;;19.70;;
39554;SDS011;25231;48.746;9.234;2023-03-25T12:26:53;14.20;;;13.20;;
39554;SDS011;25231;48.746;9.234;2023-03-25T12:40:45;18.57;;;17.63;;
39554;SDS011;25231;48.746;9.234;2023-03-25T12:44:09;23.80;;;22.50;;
39554;SDS011;25231;48.746;9.234;2023-03-25T12:54:23;4.67;;;4.37;;
39554;SDS011;25231;48.746;9.234;2023-03-25T13:06:38;4.80;;;4.60;;
39554;SDS011;25231;48.746;9.234;2023-03-25T13:09:20;4.83;;;4.63;;
39554;SDS011;25231;48.746;9.234;2023-03-25T13:11:50;8.50;;;7.90;;
39554;SDS011;25231;48.746;9.234;2023-03-25T13:14:25;4.53;;;4.33;;
39554;SDS011;25231;48.746;9.234;2023-03-25T13:16:54;5.00;;;4.60;;
39554;SDS011;25231;48.746;9.234;2023-03-25T13:19:24;5.10;;;4.83;;
39554;SDS011;25231;48.746;9.234;2023-03-25T13:21:57;3.60;;;3.40;;
39554;SDS011;25231;48.746;9.234;2023-03-25T13:24:37;8.93;;;8.43;;
39554;SDS011;25231;48.746;9.234;2023-03-25T13:27:09;14.33;;;13.23;;
39554;SDS011;25231;48.746;9.234;2023-03-25T13:29:47;17.20;;;16.20;;
39554;SDS011;25231;48.746;9.234;2023-03-25T13:32:23;37.53;;;35.60;;
39554;SDS011;25231;48.746;9.234;2023-03-25T13:34:55;36.17;;;34.23;;
39554;SDS011;25231;48.746;9.234;2023-03-25T13:37:36;11.67;;;11.13;;
39554;SDS011;25231;48.746;9.234;2023-03-25T13:43:04;11.07;;;10.50;;
39554;SDS011;25231;48.746;9.234;2023-03-25T13:45:49;19.50;;;18.53;;
39554;SDS011;25231;48.746;9.234;2023-03-25T13:48:30;21.50;;;20.30;;
39554;SDS011;25231;48.746;9.234;2023-03-25T13:51:04;19.10;;;18.13;;
39554;SDS011;25231;48.746;9.234;2023-03-25T13:53:45;18.87;;;17.87;;
39554;SDS011;25231;48.746;9.234;2023-03-25T13:59:30;25.20;;;23.83;;
39554;SDS011;25231;48.746;9.234;2023-03-25T14:13:28;9.67;;;9.13;;
39554;SDS011;25231;48.746;9.234;2023-03-25T14:18:28;9.57;;;9.07;;
39554;SDS011;25231;48.746;9.234;2023-03-25T14:20:56;16.10;;;15.20;;
39554;SDS011;25231;48.746;9.234;2023-03-25T14:23:42;5.93;;;5.50;;
39554;SDS011;25231;48.746;9.234;2023-03-25T14:26:07;8.93;;;8.27;;
39554;SDS011;25231;48.746;9.234;2023-03-25T14:28:38;6.80;;;6.20;;
39554;SDS011;25231;48.746;9.234;2023-03-25T14:31:08;7.03;;;6.63;;
39554;SDS011;25231;48.746;9.234;2023-03-25T14:36:28;3.37;;;3.17;;
39554;SDS011;25231;48.746;9.234;2023-03-25T14:38:55;4.83;;;4.53;;
39554;SDS011;25231;48.746;9.234;2023-03-25T14:44:27;5.30;;;5.00;;
39554;SDS011;25231;48.746;9.234;2023-03-25T14:47:00;5.43;;;5.03;;
39554;SDS011;25231;48.746;9.234;2023-03-25T14:49:46;6.70;;;6.20;;
39554;SDS011;25231;48.746;9.234;2023-03-25T14:52:50;4.50;;;3.87;;
39554;SDS011;25231;48.746;9.234;2023-03-25T14:55:28;5.73;;;4.20;;
39554;SDS011;25231;48.746;9.234;2023-03-25T14:58:19;14.97;;;14.07;;
39554;SDS011;25231;48.746;9.234;2023-03-25T15:00:54;16.10;;;15.27;;
39554;SDS011;25231;48.746;9.234;2023-03-25T15:03:27;12.43;;;11.73;;
39554;SDS011;25231;48.746;9.234;2023-03-25T15:05:57;10.83;;;10.30;;
39554;SDS011;25231;48.746;9.234;2023-03-25T15:08:32;14.53;;;13.50;;
39554;SDS011;25231;48.746;9.234;2023-03-25T15:11:13;26.97;;;25.47;;
39554;SDS011;25231;48.746;9.234;2023-03-25T15:13:41;32.83;;;31.13;;
39554;SDS011;25231;48.746;9.234;2023-03-25T15:19:19;39.03;;;36.83;;
39554;SDS011;25231;48.746;9.234;2023-03-25T15:24:32;46.97;;;44.57;;
39554;SDS011;25231;48.746;9.234;2023-03-25T15:27:00;52.97;;;50.23;;
39554;SDS011;25231;48.746;9.234;2023-03-25T15:29:41;7.50;;;7.00;;
39554;SDS011;25231;48.746;9.234;2023-03-25T15:35:08;49.27;;;46.60;;
39554;SDS011;25231;48.746;9.234;2023-03-25T15:50:47;6.60;;;6.17;;
39554;SDS011;25231;48.746;9.234;2023-03-25T15:56:11;25.57;;;24.23;;
39554;SDS011;25231;48.746;9.234;2023-03-25T16:01:18;6.73;;;6.17;;
39554;SDS011;25231;48.746;9.234;2023-03-25T16:03:51;10.37;;;9.77;;
39554;SDS011;25231;48.746;9.234;2023-03-25T16:06:22;10.67;;;9.87;;
39554;SDS011;25231;48.746;9.234;2023-03-25T16:08:50;8.93;;;8.33;;
39554;SDS011;25231;48.746;9.234;2023-03-25T16:13:44;11.73;;;11.03;;
39554;SDS011;25231;48.746;9.234;2023-03-25T16:16:11;14.27;;;13.47;;
39554;SDS011;25231;48.746;9.234;2023-03-25T16:18:40;19.03;;;17.97;;
39554;SDS011;25231;48.746;9.234;2023-03-25T16:21:07;10.30;;;9.60;;
39554;SDS011;25231;48.746;9.234;2023-03-25T16:23:33;19.17;;;18.13;;
39554;SDS011;25231;48.746;9.234;2023-03-25T16:25:59;40.37;;;38.17;;
39554;SDS011;25231;48.746;9.234;2023-03-25T16:28:30;10.67;;;10.07;;
39554;SDS011;25231;48.746;9.234;2023-03-25T16:30:58;7.07;;;6.57;;
39554;SDS011;25231;48.746;9.234;2023-03-25T16:33:27;21.97;;;20.80;;
39554;SDS011;25231;48.746;9.234;2023-03-25T16:35:57;50.67;;;47.90;;
39554;SDS011;25231;48.746;9.234;2023-03-25T16:38:24;50.53;;;47.87;;
39554;SDS011;25231;48.746;9.234;2023-03-25T16:40:51;39.73;;;37.47;;
39554;SDS011;25231;48.746;9.234;2023-03-25T16:43:24;19.17;;;18.00;;
39554;SDS011;25231;48.746;9.234;2023-03-25T16:45:57;12.10;;;11.37;;
39554;SDS011;25231;48.746;9.234;2023-03-25T16:48:27;8.23;;;7.73;;
39554;SDS011;25231;48.746;9.234;2023-03-25T16:50:56;8.80;;;8.17;;
39554;SDS011;25231;48.746;9.234;2023-03-25T16:53:25;7.90;;;7.50;;
39554;SDS011;25231;48.746;9.234;2023-03-25T17:01:43;6.20;;;5.70;;
39554;SDS011;25231;48.746;9.234;2023-03-25T17:04:16;6.47;;;5.93;;
39554;SDS011;25231;48.746;9.234;2023-03-25T17:06:51;10.10;;;9.40;;
39554;SDS011;25231;48.746;9.234;2023-03-25T17:09:20;6.70;;;6.17;;
39554;SDS011;25231;48.746;9.234;2023-03-25T17:11:56;10.93;;;10.10;;
39554;SDS011;25231;48.746;9.234;2023-03-25T17:14:31;20.10;;;18.80;;
39554;SDS011;25231;48.746;9.234;2023-03-25T17:17:44;27.33;;;25.93;;
39554;SDS011;25231;48.746;9.234;2023-03-25T17:19:55;15.53;;;14.33;;
39554;SDS011;25231;48.746;9.234;2023-03-25T17:22:33;5.47;;;4.13;;
39554;SDS011;25231;48.746;9.234;2023-03-25T17:25:21;4.60;;;4.17;;
39554;SDS011;25231;48.746;9.234;2023-03-25T17:27:52;6.97;;;5.27;;
39554;SDS011;25231;48.746;9.234;2023-03-25T17:30:20;8.97;;;8.30;;
39554;SDS011;25231;48.746;9.234;2023-03-25T17:33:14;11.77;;;10.97;;
39554;SDS011;25231;48.746;9.234;2023-03-25T17:36:07;18.03;;;16.77;;
39554;SDS011;25231;48.746;9.234;2023-03-25T17:38:35;11.23;;;10.43;;
39554;SDS011;25231;48.746;9.234;2023-03-25T17:41:05;12.10;;;11.37;;
39554;SDS011;25231;48.746;9.234;2023-03-25T17:43:34;8.57;;;4.30;;
39554;SDS011;25231;48.746;9.234;2023-03-25T17:46:01;6.27;;;3.70;;
39554;SDS011;25231;48.746;9.234;2023-03-25T17:48:29;6.10;;;5.70;;
39554;SDS011;25231;48.746;9.234;2023-03-25T17:50:56;9.53;;;9.03;;
39554;SDS011;25231;48.746;9.234;2023-03-25T17:53:22;11.00;;;10.10;;
39554;SDS011;25231;48.746;9.234;2023-03-25T17:55:48;8.07;;;7.33;;
39554;SDS011;25231;48.746;9.234;2023-03-25T17:58:14;6.53;;;6.03;;
39554;SDS011;25231;48.746;9.234;2023-03-25T18:00:41;4.50;;;4.20;;
39554;SDS011;25231;48.746;9.234;2023-03-25T18:03:14;5.40;;;3.47;;
39554;SDS011;25231;48.746;9.234;2023-03-25T18:05:42;5.83;;;3.53;;